createdAt,value
2022-10-11T00:00:49.971Z,11.00
2022-10-11T00:03:17.379Z,12.52
2022-10-11T00:05:44.425Z,10.65
2022-10-11T00:08:13.080Z,13.20
2022-10-11T00:10:40.482Z,10.95
2022-10-11T00:13:08.099Z,12.07
2022-10-11T00:15:35.142Z,11.48
2022-10-11T00:18:05.226Z,11.05
2022-10-11T00:20:32.454Z,11.20
2022-10-11T00:22:59.422Z,13.32
2022-10-11T00:25:26.293Z,12.85
2022-10-11T00:27:53.282Z,12.05
2022-10-11T00:30:20.282Z,17.58
2022-10-11T00:32:47.314Z,12.98
2022-10-11T00:35:14.773Z,15.25
2022-10-11T00:37:42.231Z,18.20
2022-10-11T00:40:14.012Z,16.35
2022-10-11T00:45:26.602Z,16.02
2022-10-11T00:47:56.311Z,13.80
2022-10-11T00:50:23.895Z,14.50
2022-10-11T00:52:55.481Z,17.17
2022-10-11T00:55:22.926Z,16.90
2022-10-11T00:57:52.929Z,14.02
2022-10-11T01:00:20.412Z,18.83
2022-10-11T01:02:47.413Z,17.83
2022-10-11T01:05:30.769Z,16.40
2022-10-11T01:08:01.083Z,16.23
2022-10-11T01:10:28.765Z,16.17
2022-10-11T01:13:21.715Z,14.25
2022-10-11T01:16:08.645Z,16.80
2022-10-11T01:18:59.541Z,13.68
2022-10-11T01:21:35.282Z,19.48
2022-10-11T01:24:28.875Z,17.50
2022-10-11T01:27:26.673Z,18.20
2022-10-11T01:30:04.583Z,14.48
2022-10-11T01:32:42.503Z,15.27
2022-10-11T01:35:31.051Z,18.90
2022-10-11T01:38:08.911Z,16.20
2022-10-11T01:40:57.865Z,16.55
2022-10-11T01:43:26.072Z,19.30
2022-10-11T01:45:54.899Z,20.63
2022-10-11T01:48:22.193Z,17.58
2022-10-11T01:50:51.863Z,17.45
2022-10-11T01:53:44.353Z,19.83
2022-10-11T01:56:36.035Z,15.45
2022-10-11T01:59:28.628Z,17.60
2022-10-11T02:02:24.174Z,16.67
2022-10-11T02:05:03.319Z,17.13
2022-10-11T02:07:39.461Z,14.05
2022-10-11T02:10:15.491Z,16.10
2022-10-11T02:13:09.861Z,21.23
2022-10-11T02:15:39.613Z,16.02
2022-10-11T02:18:11.223Z,16.95
2022-10-11T02:20:40.653Z,13.57
2022-10-11T02:23:11.448Z,16.42
2022-10-11T02:25:39.616Z,16.45
2022-10-11T02:28:11.485Z,15.27
2022-10-11T02:33:07.819Z,13.73
2022-10-11T02:35:39.491Z,13.23
2022-10-11T02:38:15.862Z,12.90
2022-10-11T02:40:45.317Z,19.80
2022-10-11T02:43:24.177Z,13.57
2022-10-11T02:45:57.921Z,18.45
2022-10-11T02:48:25.408Z,17.48
2022-10-11T02:50:54.215Z,16.48
2022-10-11T02:53:21.366Z,18.83
2022-10-11T02:55:49.581Z,20.58
2022-10-11T02:58:16.477Z,15.80
2022-10-11T03:00:43.985Z,15.48
2022-10-11T03:03:11.055Z,16.75
2022-10-11T03:05:41.609Z,19.23
2022-10-11T03:08:10.169Z,18.55
2022-10-11T03:10:38.176Z,17.40
2022-10-11T03:13:05.712Z,14.70
2022-10-11T03:15:32.824Z,14.93
2022-10-11T03:17:59.826Z,16.52
2022-10-11T03:20:26.823Z,13.43
2022-10-11T03:22:53.923Z,13.77
2022-10-11T03:25:20.833Z,10.48
2022-10-11T03:27:47.891Z,13.90
2022-10-11T03:30:18.392Z,9.48
2022-10-11T03:32:45.910Z,8.77
2022-10-11T03:35:12.837Z,9.90
2022-10-11T03:37:39.812Z,8.35
2022-10-11T03:40:08.458Z,9.43
2022-10-11T03:42:36.021Z,8.10
2022-10-11T03:45:08.046Z,9.35
2022-10-11T03:47:36.523Z,7.18
2022-10-11T03:50:05.530Z,6.03
2022-10-11T03:52:32.490Z,6.00
2022-10-11T03:54:59.559Z,8.65
2022-10-11T03:57:26.638Z,6.00
2022-10-11T03:59:53.672Z,6.28
2022-10-11T04:02:21.452Z,5.70
2022-10-11T04:04:50.091Z,7.63
2022-10-11T04:07:17.368Z,5.68
2022-10-11T04:09:44.378Z,7.22
2022-10-11T04:12:11.511Z,5.30
2022-10-11T04:14:38.392Z,3.50
2022-10-11T04:17:05.371Z,3.20
2022-10-11T04:19:32.378Z,4.05
2022-10-11T04:22:00.020Z,3.08
2022-10-11T04:24:27.084Z,3.13
2022-10-11T04:26:54.221Z,3.60
2022-10-11T04:29:21.542Z,5.90
2022-10-11T04:31:48.583Z,4.95
2022-10-11T04:34:15.791Z,3.65
2022-10-11T04:36:45.309Z,3.28
2022-10-11T04:39:16.055Z,4.55
2022-10-11T04:41:42.942Z,2.25
2022-10-11T04:44:09.908Z,3.38
2022-10-11T04:46:36.811Z,5.13
2022-10-11T04:49:03.746Z,2.75
2022-10-11T04:51:30.833Z,7.70
2022-10-11T04:53:57.766Z,3.72
2022-10-11T04:56:24.741Z,4.80
2022-10-11T04:58:54.280Z,3.78
2022-10-11T05:01:21.866Z,4.25
2022-10-11T05:03:49.610Z,4.55
2022-10-11T05:06:16.593Z,6.38
2022-10-11T05:08:43.671Z,8.88
2022-10-11T05:11:15.797Z,6.30
2022-10-11T05:13:44.552Z,5.85
2022-10-11T05:16:12.114Z,6.25
2022-10-11T05:18:39.859Z,7.75
2022-10-11T05:21:16.074Z,6.97
2022-10-11T05:23:43.465Z,6.40
2022-10-11T05:26:10.639Z,7.65
2022-10-11T05:28:37.873Z,6.60
2022-10-11T05:31:05.076Z,9.18
2022-10-11T05:33:32.416Z,11.13
2022-10-11T05:35:59.415Z,8.40
2022-10-11T05:38:26.656Z,8.88
2022-10-11T05:40:53.627Z,5.57
2022-10-11T05:43:20.683Z,9.00
2022-10-11T05:45:47.641Z,7.80
2022-10-11T05:48:14.659Z,8.90
2022-10-11T05:50:41.606Z,10.90
2022-10-11T05:53:08.667Z,11.13
2022-10-11T05:55:39.600Z,7.55
2022-10-11T05:58:07.578Z,5.72
2022-10-11T06:00:38.141Z,8.68
2022-10-11T06:03:09.059Z,8.25
2022-10-11T06:05:36.307Z,8.10
2022-10-11T06:08:06.100Z,13.48
2022-10-11T06:10:33.455Z,20.88
2022-10-11T06:13:00.405Z,19.83
2022-10-11T06:15:27.534Z,11.23
2022-10-11T06:17:54.565Z,7.75
2022-10-11T06:20:22.040Z,9.75
2022-10-11T06:22:48.988Z,12.27
2022-10-11T06:25:16.116Z,12.90
2022-10-11T06:27:43.069Z,11.18
2022-10-11T06:30:10.511Z,11.00
2022-10-11T06:32:37.475Z,8.43
2022-10-11T06:35:05.631Z,6.45
2022-10-11T06:37:32.593Z,10.05
2022-10-11T06:39:59.601Z,14.70
2022-10-11T06:42:26.601Z,11.15
2022-10-11T06:44:53.500Z,13.20
2022-10-11T06:47:20.492Z,12.88
2022-10-11T06:49:47.402Z,15.52
2022-10-11T06:52:14.516Z,8.55
2022-10-11T06:54:44.891Z,8.98
2022-10-11T06:57:12.722Z,10.40
2022-10-11T06:59:39.661Z,10.15
2022-10-11T07:02:07.081Z,22.30
2022-10-11T07:04:34.116Z,15.93
2022-10-11T07:07:01.362Z,20.65
2022-10-11T07:09:28.294Z,13.35
2022-10-11T07:11:55.392Z,12.77
2022-10-11T07:14:22.331Z,11.63
2022-10-11T07:16:49.253Z,10.32
2022-10-11T07:19:16.296Z,12.35
2022-10-11T07:21:43.269Z,10.93
2022-10-11T07:24:10.304Z,12.98
2022-10-11T07:29:19.184Z,11.13
2022-10-11T07:31:46.149Z,13.25
2022-10-11T07:34:13.158Z,10.45
2022-10-11T07:36:40.402Z,10.88
2022-10-11T07:39:08.065Z,13.70
2022-10-11T07:41:35.503Z,8.50
2022-10-11T07:44:03.364Z,8.98
2022-10-11T07:46:30.955Z,10.90
2022-10-11T07:48:58.029Z,6.82
2022-10-11T07:51:25.715Z,8.88
2022-10-11T07:53:57.052Z,4.07
2022-10-11T07:56:28.666Z,12.05
2022-10-11T07:58:58.023Z,8.88
2022-10-11T08:01:26.413Z,7.68
2022-10-11T08:03:54.103Z,11.90
2022-10-11T08:06:23.170Z,14.75
2022-10-11T08:08:50.401Z,9.93
2022-10-11T08:11:26.307Z,11.82
2022-10-11T08:13:53.444Z,12.77
2022-10-11T08:16:20.598Z,6.70
2022-10-11T08:18:47.860Z,9.90
2022-10-11T08:21:17.201Z,5.20
2022-10-11T08:23:44.400Z,10.82
2022-10-11T08:26:11.545Z,8.98
2022-10-11T08:28:38.956Z,8.55
2022-10-11T08:31:06.700Z,10.43
2022-10-11T08:33:34.114Z,7.45
2022-10-11T08:36:06.002Z,13.18
2022-10-11T08:38:34.009Z,11.70
2022-10-11T08:41:01.587Z,10.38
2022-10-11T08:43:49.769Z,11.10
2022-10-11T08:46:17.152Z,11.52
2022-10-11T08:48:50.062Z,8.05
2022-10-11T08:51:23.341Z,12.07
2022-10-11T08:54:07.611Z,10.93
2022-10-11T08:56:40.010Z,7.40
2022-10-11T08:59:13.144Z,9.18
2022-10-11T09:02:20.495Z,9.55
2022-10-11T09:04:52.668Z,6.35
2022-10-11T09:07:28.878Z,11.00
2022-10-11T09:10:31.512Z,7.15
2022-10-11T09:13:11.260Z,5.90
2022-10-11T09:15:56.672Z,7.18
2022-10-11T09:18:41.184Z,9.73
2022-10-11T09:21:46.353Z,13.45
2022-10-11T09:24:38.111Z,12.27
2022-10-11T09:27:25.890Z,10.65
2022-10-11T09:30:10.066Z,11.60
2022-10-11T09:32:40.133Z,13.02
2022-10-11T09:35:18.669Z,8.02
2022-10-11T09:38:15.839Z,8.32
2022-10-11T09:41:04.899Z,10.32
2022-10-11T09:43:31.953Z,9.40
2022-10-11T09:45:58.944Z,10.48
2022-10-11T09:48:33.645Z,11.40
2022-10-11T09:51:07.449Z,11.88
2022-10-11T09:53:57.229Z,10.63
2022-10-11T09:56:26.451Z,11.77
2022-10-11T09:59:30.733Z,7.68
2022-10-11T10:02:16.698Z,8.48
2022-10-11T10:05:05.264Z,12.52
2022-10-11T10:07:34.351Z,10.73
2022-10-11T10:10:40.108Z,9.07
2022-10-11T10:13:22.777Z,8.52
2022-10-11T10:15:53.636Z,10.18
2022-10-11T10:18:47.014Z,13.32
2022-10-11T10:21:15.744Z,7.50
2022-10-11T10:23:43.514Z,13.52
2022-10-11T10:26:20.022Z,9.43
2022-10-11T10:29:09.052Z,9.27
2022-10-11T10:34:40.460Z,9.23
2022-10-11T10:37:27.766Z,11.60
2022-10-11T10:40:07.957Z,10.40
2022-10-11T10:42:35.027Z,11.52
2022-10-11T10:45:02.163Z,12.60
2022-10-11T10:47:59.893Z,11.13
2022-10-11T10:50:51.124Z,13.38
2022-10-11T10:53:26.491Z,8.90
2022-10-11T10:56:11.090Z,6.20
2022-10-11T10:58:56.796Z,7.78
2022-10-11T11:01:25.556Z,6.65
2022-10-11T11:04:17.185Z,8.32
2022-10-11T11:06:51.591Z,8.38
2022-10-11T11:09:54.657Z,8.55
2022-10-11T11:12:40.344Z,5.10
2022-10-11T11:15:15.941Z,14.27
2022-10-11T11:18:20.434Z,9.93
2022-10-11T11:20:53.009Z,13.75
2022-10-11T11:23:32.092Z,7.53
2022-10-11T11:26:22.111Z,13.02
2022-10-11T11:29:11.120Z,12.50
2022-10-11T11:31:53.131Z,10.23
2022-10-11T11:34:29.137Z,6.25
2022-10-11T11:37:00.160Z,9.10
2022-10-11T11:39:34.978Z,6.68
2022-10-11T11:42:07.874Z,12.75
2022-10-11T11:44:47.399Z,9.15
2022-10-11T11:47:22.632Z,10.45
2022-10-11T11:49:56.100Z,12.70
2022-10-11T11:52:47.392Z,10.80
2022-10-11T11:55:23.755Z,13.13
2022-10-11T11:58:16.593Z,7.03
2022-10-11T12:00:56.833Z,8.10
2022-10-11T12:03:51.454Z,11.98
2022-10-11T12:06:22.455Z,7.50
2022-10-11T12:09:35.709Z,10.57
2022-10-11T12:12:07.602Z,10.52
2022-10-11T12:17:17.840Z,9.38
2022-10-11T12:20:12.429Z,8.85
2022-10-11T12:23:03.603Z,7.88
2022-10-11T12:25:35.399Z,5.28
2022-10-11T12:28:49.257Z,7.63
2022-10-11T12:31:22.631Z,6.85
2022-10-11T12:33:54.044Z,14.88
2022-10-11T12:36:43.631Z,10.48
2022-10-11T12:39:19.895Z,10.73
2022-10-11T12:41:55.498Z,9.38
2022-10-11T12:44:27.471Z,8.82
2022-10-11T12:50:12.119Z,6.28
2022-10-11T12:53:04.536Z,5.75
2022-10-11T12:56:09.748Z,4.38
2022-10-11T12:58:44.143Z,8.18
2022-10-11T13:01:13.295Z,5.95
2022-10-11T13:03:42.670Z,11.07
2022-10-11T13:06:18.073Z,10.13
2022-10-11T13:08:49.581Z,5.97
2022-10-11T13:11:23.060Z,8.57
2022-10-11T13:14:06.360Z,6.22
2022-10-11T13:16:58.787Z,8.15
2022-10-11T13:19:26.967Z,11.75
2022-10-11T13:21:57.230Z,7.20
2022-10-11T13:24:25.553Z,7.00
2022-10-11T13:26:55.794Z,5.88
2022-10-11T13:29:56.375Z,8.10
2022-10-11T13:32:30.273Z,10.65
2022-10-11T13:35:01.253Z,11.80
2022-10-11T13:37:29.873Z,4.97
2022-10-11T13:39:57.933Z,10.90
2022-10-11T13:42:30.082Z,9.13
2022-10-11T13:44:57.939Z,13.00
2022-10-11T13:47:32.142Z,10.18
2022-10-11T13:50:08.152Z,6.22
2022-10-11T13:52:35.253Z,13.05
2022-10-11T13:55:05.995Z,11.73
2022-10-11T13:57:37.791Z,8.45
2022-10-11T14:00:34.857Z,8.10
2022-10-11T14:03:16.278Z,12.00
2022-10-11T14:06:04.021Z,14.43
2022-10-11T14:08:40.025Z,10.60
2022-10-11T14:11:07.846Z,6.47
2022-10-11T14:13:42.591Z,10.35
2022-10-11T14:16:12.967Z,11.25
2022-10-11T14:18:51.373Z,7.60
2022-10-11T14:21:24.144Z,14.90
2022-10-11T14:24:03.819Z,10.27
2022-10-11T14:26:35.289Z,11.52
2022-10-11T14:29:06.584Z,15.88
2022-10-11T14:31:41.533Z,9.57
2022-10-11T14:34:16.009Z,7.93
2022-10-11T14:36:45.651Z,4.70
2022-10-11T14:39:17.136Z,6.72
2022-10-11T14:41:45.188Z,9.23
2022-10-11T14:44:12.787Z,8.00
2022-10-11T14:46:41.375Z,8.60
2022-10-11T14:49:23.170Z,13.05
2022-10-11T14:51:51.163Z,8.00
2022-10-11T14:54:22.420Z,13.15
2022-10-11T14:56:51.140Z,6.43
2022-10-11T14:59:21.571Z,8.02
2022-10-11T15:01:53.804Z,6.10
2022-10-11T15:04:26.585Z,9.07
2022-10-11T15:06:55.145Z,9.13
2022-10-11T15:09:30.762Z,6.53
2022-10-11T15:11:58.510Z,10.75
2022-10-11T15:14:26.001Z,14.07
2022-10-11T15:16:54.498Z,10.73
2022-10-11T15:19:24.222Z,11.35
2022-10-11T15:21:51.767Z,12.10
2022-10-11T15:24:22.301Z,10.80
2022-10-11T15:26:49.592Z,9.40
2022-10-11T15:29:22.083Z,12.02
2022-10-11T15:31:49.742Z,13.65
2022-10-11T15:34:17.355Z,14.63
2022-10-11T15:36:44.590Z,14.27
2022-10-11T15:39:27.149Z,11.13
2022-10-11T15:41:54.721Z,11.50
2022-10-11T15:44:21.678Z,13.63
2022-10-11T15:46:48.955Z,11.48
2022-10-11T15:49:17.064Z,8.73
2022-10-11T15:51:44.305Z,9.20
2022-10-11T15:54:11.227Z,11.40
2022-10-11T15:56:38.504Z,12.52
2022-10-11T15:59:05.722Z,11.00
2022-10-11T16:01:33.415Z,16.20
2022-10-11T16:04:01.166Z,14.70
2022-10-11T16:06:28.702Z,13.80
2022-10-11T16:08:55.752Z,13.48
2022-10-11T16:11:22.859Z,18.98
2022-10-11T16:13:49.816Z,33.30
2022-10-11T16:16:16.971Z,18.60
2022-10-11T16:18:43.887Z,11.80
2022-10-11T16:21:13.046Z,12.48
2022-10-11T16:23:40.175Z,15.80
2022-10-11T16:26:11.216Z,20.17
2022-10-11T16:28:38.666Z,25.80
2022-10-11T16:31:24.457Z,22.17
2022-10-11T16:33:53.071Z,21.02
2022-10-11T16:36:41.123Z,19.50
2022-10-11T16:39:16.617Z,20.30
2022-10-11T16:41:44.719Z,22.17
2022-10-11T16:44:20.106Z,23.48
2022-10-11T16:46:48.562Z,22.33
2022-10-11T16:49:22.144Z,18.60
2022-10-11T16:51:50.211Z,21.58
2022-10-11T16:54:20.560Z,21.05
2022-10-11T16:56:49.434Z,24.98
2022-10-11T16:59:16.776Z,26.92
2022-10-11T17:01:45.229Z,25.30
2022-10-11T17:04:13.028Z,25.23
2022-10-11T17:06:40.413Z,20.65
2022-10-11T17:09:07.410Z,19.67
2022-10-11T17:11:34.493Z,25.52
2022-10-11T17:14:02.095Z,17.80
2022-10-11T17:16:29.191Z,21.15
2022-10-11T17:18:56.246Z,24.75
2022-10-11T17:21:24.339Z,23.13
2022-10-11T17:23:51.517Z,28.20
2022-10-11T17:26:26.316Z,21.02
2022-10-11T17:28:54.978Z,18.10
2022-10-11T17:31:22.690Z,16.48
2022-10-11T17:33:50.175Z,22.10
2022-10-11T17:36:23.981Z,17.30
2022-10-11T17:38:53.103Z,14.73
2022-10-11T17:41:21.181Z,19.88
2022-10-11T17:43:48.289Z,19.23
2022-10-11T17:46:16.425Z,20.83
2022-10-11T17:48:44.772Z,19.45
2022-10-11T17:51:14.787Z,10.80
2022-10-11T17:53:42.148Z,14.23
2022-10-11T17:56:11.763Z,11.57
2022-10-11T17:58:39.335Z,23.70
2022-10-11T18:01:10.829Z,21.08
2022-10-11T18:03:38.647Z,19.40
2022-10-11T18:06:08.076Z,16.27
2022-10-11T18:08:40.188Z,26.23
2022-10-11T18:11:16.284Z,13.88
2022-10-11T18:13:46.527Z,21.90
2022-10-11T18:16:16.402Z,24.45
2022-10-11T18:18:44.322Z,17.15
2022-10-11T18:21:19.120Z,19.17
2022-10-11T18:23:48.118Z,17.73
2022-10-11T18:26:20.870Z,20.17
2022-10-11T18:28:48.633Z,18.40
2022-10-11T18:31:20.327Z,18.42
2022-10-11T18:33:48.711Z,17.00
2022-10-11T18:36:17.865Z,19.20
2022-10-11T18:38:49.474Z,20.58
2022-10-11T18:41:19.601Z,11.98
2022-10-11T18:43:55.082Z,18.20
2022-10-11T18:46:23.486Z,14.25
2022-10-11T18:48:52.254Z,19.75
2022-10-11T18:51:20.199Z,13.93
2022-10-11T18:53:48.103Z,18.77
2022-10-11T18:56:17.174Z,17.02
2022-10-11T18:58:44.861Z,18.75
2022-10-11T19:01:17.855Z,16.98
2022-10-11T19:03:46.161Z,15.75
2022-10-11T19:06:18.964Z,18.25
2022-10-11T19:08:59.428Z,13.80
2022-10-11T19:11:27.301Z,14.45
2022-10-11T19:14:14.929Z,15.40
2022-10-11T19:16:49.677Z,14.85
2022-10-11T19:19:20.810Z,15.68
2022-10-11T19:21:49.021Z,14.35
2022-10-11T19:24:17.650Z,21.50
2022-10-11T19:26:45.781Z,17.45
2022-10-11T19:29:15.473Z,18.45
2022-10-11T19:31:45.653Z,16.63
2022-10-11T19:34:13.502Z,15.18
2022-10-11T19:36:42.924Z,15.82
2022-10-11T19:39:17.991Z,18.88
2022-10-11T19:41:45.389Z,20.85
2022-10-11T19:44:13.743Z,26.80
2022-10-11T19:47:00.223Z,16.70
2022-10-11T19:49:29.625Z,15.93
2022-10-11T19:51:56.830Z,19.45
2022-10-11T19:54:24.191Z,14.98
2022-10-11T19:56:51.506Z,14.73
2022-10-11T19:59:18.976Z,22.10
2022-10-11T20:01:51.913Z,20.85
2022-10-11T20:04:50.492Z,21.08
2022-10-11T20:07:07.394Z,19.45
2022-10-11T20:09:34.515Z,23.50
2022-10-11T20:12:02.418Z,19.55
2022-10-11T20:14:29.846Z,16.23
2022-10-11T20:16:57.792Z,17.80
2022-10-11T20:19:31.404Z,14.55
2022-10-11T20:22:00.144Z,12.90
2022-10-11T20:24:29.959Z,14.65
2022-10-11T20:26:57.285Z,14.70
2022-10-11T20:29:27.867Z,10.13
2022-10-11T20:31:56.613Z,12.25
2022-10-11T20:34:23.808Z,16.10
2022-10-11T20:36:51.090Z,16.70
2022-10-11T20:39:18.344Z,14.63
2022-10-11T20:41:45.641Z,15.07
2022-10-11T20:44:16.094Z,19.10
2022-10-11T20:46:43.441Z,11.05
2022-10-11T20:49:11.914Z,11.40
2022-10-11T20:51:41.561Z,17.20
2022-10-11T20:54:09.578Z,16.83
2022-10-11T20:56:37.561Z,11.50
2022-10-11T20:59:05.483Z,16.67
2022-10-11T21:01:37.178Z,12.02
2022-10-11T21:06:32.565Z,14.65
2022-10-11T21:09:00.306Z,12.52
2022-10-11T21:11:32.125Z,13.10
2022-10-11T21:14:01.485Z,8.23
2022-10-11T21:16:28.784Z,16.50
2022-10-11T21:18:57.521Z,16.60
2022-10-11T21:21:25.811Z,14.57
2022-10-11T21:23:57.096Z,12.80
2022-10-11T21:26:24.603Z,15.15
2022-10-11T21:28:51.898Z,14.23
2022-10-11T21:31:20.594Z,17.52
2022-10-11T21:33:48.045Z,11.45
2022-10-11T21:36:17.554Z,13.55
2022-10-11T21:38:45.027Z,14.20
2022-10-11T21:41:14.346Z,20.38
2022-10-11T21:43:41.746Z,14.73
2022-10-11T21:46:20.148Z,15.05
2022-10-11T21:48:47.787Z,16.85
2022-10-11T21:51:16.897Z,13.73
2022-10-11T21:53:43.904Z,15.85
2022-10-11T21:56:10.837Z,16.50
2022-10-11T21:58:37.965Z,14.13
2022-10-11T22:01:05.501Z,14.48
2022-10-11T22:03:32.623Z,14.50
2022-10-11T22:06:03.040Z,12.00
2022-10-11T22:08:30.453Z,11.20
2022-10-11T22:10:59.327Z,10.02
2022-10-11T22:13:27.833Z,9.50
2022-10-11T22:15:58.155Z,9.90
2022-10-11T22:18:25.613Z,9.10
2022-10-11T22:20:52.746Z,10.75
2022-10-11T22:23:19.903Z,12.32
2022-10-11T22:25:46.847Z,8.05
2022-10-11T22:28:14.685Z,12.70
2022-10-11T22:30:42.141Z,8.48
2022-10-11T22:33:09.288Z,11.02
2022-10-11T22:35:37.881Z,15.93
2022-10-11T22:38:06.397Z,9.65
2022-10-11T22:40:33.730Z,13.70
2022-10-11T22:43:00.883Z,12.10
2022-10-11T22:45:27.890Z,14.90
2022-10-11T22:47:54.944Z,15.90
2022-10-11T22:50:21.986Z,12.07
2022-10-11T22:52:48.926Z,10.40
2022-10-11T22:55:19.952Z,11.95
2022-10-11T22:57:47.410Z,13.60
2022-10-11T23:00:14.788Z,10.63
2022-10-11T23:02:41.945Z,13.93
2022-10-11T23:05:09.023Z,14.07
2022-10-11T23:07:36.664Z,10.82
2022-10-11T23:10:04.367Z,13.95
2022-10-11T23:12:31.424Z,13.82
2022-10-11T23:14:58.967Z,12.75
2022-10-11T23:17:25.907Z,15.55
2022-10-11T23:19:53.079Z,13.15
2022-10-11T23:22:20.111Z,11.77
2022-10-11T23:24:47.354Z,13.50
2022-10-11T23:27:14.563Z,17.85
2022-10-11T23:29:41.789Z,11.70
2022-10-11T23:32:09.104Z,7.55
2022-10-11T23:34:36.224Z,11.80
2022-10-11T23:37:03.788Z,11.65
2022-10-11T23:39:30.890Z,11.40
2022-10-11T23:41:57.873Z,13.10
2022-10-11T23:44:25.046Z,14.55
2022-10-11T23:46:52.214Z,12.55
2022-10-11T23:49:19.225Z,10.50
2022-10-11T23:51:46.224Z,11.90
2022-10-11T23:54:13.204Z,13.95
2022-10-11T23:56:40.233Z,19.45
2022-10-11T23:59:07.205Z,10.80
